sensor_id;sensor_type;location;lat;lon;timestamp;temperature;humidity
68215;DHT22;55036;52.138;5.236;2023-09-19T00:00:41;16.60;85.90
68215;DHT22;55036;52.138;5.236;2023-09-19T00:03:09;16.50;85.90
68215;DHT22;55036;52.138;5.236;2023-09-19T00:05:37;16.50;86.10
68215;DHT22;55036;52.138;5.236;2023-09-19T00:08:12;16.50;86.30
68215;DHT22;55036;52.138;5.236;2023-09-19T00:10:40;16.50;86.40
68215;DHT22;55036;52.138;5.236;2023-09-19T00:13:09;16.50;86.30
68215;DHT22;55036;52.138;5.236;2023-09-19T00:15:42;16.50;86.40
68215;DHT22;55036;52.138;5.236;2023-09-19T00:18:09;16.50;86.30
68215;DHT22;55036;52.138;5.236;2023-09-19T00:20:36;16.40;86.20
68215;DHT22;55036;52.138;5.236;2023-09-19T00:23:05;16.40;86.60
68215;DHT22;55036;52.138;5.236;2023-09-19T00:25:32;16.40;86.70
68215;DHT22;55036;52.138;5.236;2023-09-19T00:27:59;16.40;86.80
68215;DHT22;55036;52.138;5.236;2023-09-19T00:30:26;16.40;86.80
68215;DHT22;55036;52.138;5.236;2023-09-19T00:32:53;16.50;86.90
68215;DHT22;55036;52.138;5.236;2023-09-19T00:35:21;16.50;86.90
68215;DHT22;55036;52.138;5.236;2023-09-19T00:37:52;16.50;87.10
68215;DHT22;55036;52.138;5.236;2023-09-19T00:40:20;16.40;87.10
68215;DHT22;55036;52.138;5.236;2023-09-19T01:19:35;16.40;88.80
68215;DHT22;55036;52.138;5.236;2023-09-19T01:22:16;16.50;87.50
68215;DHT22;55036;52.138;5.236;2023-09-19T01:30:15;16.40;87.30
68215;DHT22;55036;52.138;5.236;2023-09-19T01:32:43;16.40;87.30
68215;DHT22;55036;52.138;5.236;2023-09-19T01:35:13;16.40;87.20
68215;DHT22;55036;52.138;5.236;2023-09-19T01:37:40;16.40;87.10
68215;DHT22;55036;52.138;5.236;2023-09-19T01:40:13;16.30;87.80
68215;DHT22;55036;52.138;5.236;2023-09-19T01:45:42;16.30;87.00
68215;DHT22;55036;52.138;5.236;2023-09-19T01:51:00;16.30;86.60
68215;DHT22;55036;52.138;5.236;2023-09-19T01:53:33;16.20;86.90
68215;DHT22;55036;52.138;5.236;2023-09-19T01:56:05;16.20;87.30
68215;DHT22;55036;52.138;5.236;2023-09-19T01:58:43;16.30;87.30
68215;DHT22;55036;52.138;5.236;2023-09-19T02:01:16;16.20;87.00
68215;DHT22;55036;52.138;5.236;2023-09-19T02:03:47;16.20;86.90
68215;DHT22;55036;52.138;5.236;2023-09-19T02:06:18;16.20;86.70
68215;DHT22;55036;52.138;5.236;2023-09-19T02:08:46;16.20;86.80
68215;DHT22;55036;52.138;5.236;2023-09-19T02:11:14;16.20;86.20
68215;DHT22;55036;52.138;5.236;2023-09-19T02:13:41;16.10;86.20
68215;DHT22;55036;52.138;5.236;2023-09-19T02:16:09;16.00;86.20
68215;DHT22;55036;52.138;5.236;2023-09-19T02:18:38;16.00;86.10
68215;DHT22;55036;52.138;5.236;2023-09-19T02:21:06;15.90;86.00
68215;DHT22;55036;52.138;5.236;2023-09-19T02:23:39;15.70;86.20
68215;DHT22;55036;52.138;5.236;2023-09-19T02:26:06;15.80;86.60
68215;DHT22;55036;52.138;5.236;2023-09-19T02:28:33;15.80;86.50
68215;DHT22;55036;52.138;5.236;2023-09-19T02:31:01;15.80;86.50
68215;DHT22;55036;52.138;5.236;2023-09-19T02:33:28;15.90;86.40
68215;DHT22;55036;52.138;5.236;2023-09-19T02:35:59;15.90;86.30
68215;DHT22;55036;52.138;5.236;2023-09-19T02:38:27;15.90;86.20
68215;DHT22;55036;52.138;5.236;2023-09-19T02:40:55;16.00;86.00
68215;DHT22;55036;52.138;5.236;2023-09-19T02:43:23;16.00;85.70
68215;DHT22;55036;52.138;5.236;2023-09-19T02:45:50;16.00;85.70
68215;DHT22;55036;52.138;5.236;2023-09-19T02:48:17;15.90;85.10
68215;DHT22;55036;52.138;5.236;2023-09-19T02:50:45;15.80;85.90
68215;DHT22;55036;52.138;5.236;2023-09-19T02:53:12;15.80;85.60
68215;DHT22;55036;52.138;5.236;2023-09-19T02:55:40;15.80;86.00
68215;DHT22;55036;52.138;5.236;2023-09-19T02:58:07;15.80;85.60
68215;DHT22;55036;52.138;5.236;2023-09-19T03:00:41;15.80;85.90
68215;DHT22;55036;52.138;5.236;2023-09-19T03:03:09;15.80;85.90
68215;DHT22;55036;52.138;5.236;2023-09-19T03:05:36;15.90;85.50
68215;DHT22;55036;52.138;5.236;2023-09-19T03:08:05;15.80;85.60
68215;DHT22;55036;52.138;5.236;2023-09-19T03:10:32;15.70;85.90
68215;DHT22;55036;52.138;5.236;2023-09-19T03:12:59;15.70;85.90
68215;DHT22;55036;52.138;5.236;2023-09-19T03:15:29;15.70;86.00
68215;DHT22;55036;52.138;5.236;2023-09-19T03:17:56;15.60;86.60
68215;DHT22;55036;52.138;5.236;2023-09-19T03:20:24;15.60;86.70
68215;DHT22;55036;52.138;5.236;2023-09-19T03:22:53;15.50;86.70
68215;DHT22;55036;52.138;5.236;2023-09-19T03:25:20;15.50;86.90
68215;DHT22;55036;52.138;5.236;2023-09-19T03:27:50;15.50;87.00
68215;DHT22;55036;52.138;5.236;2023-09-19T03:30:16;15.40;86.90
68215;DHT22;55036;52.138;5.236;2023-09-19T03:32:47;15.40;87.00
68215;DHT22;55036;52.138;5.236;2023-09-19T03:35:17;15.50;86.80
68215;DHT22;55036;52.138;5.236;2023-09-19T03:37:44;15.50;86.70
68215;DHT22;55036;52.138;5.236;2023-09-19T03:40:12;15.50;86.40
68215;DHT22;55036;52.138;5.236;2023-09-19T03:42:42;15.50;86.40
68215;DHT22;55036;52.138;5.236;2023-09-19T03:45:09;15.50;86.00
68215;DHT22;55036;52.138;5.236;2023-09-19T03:47:40;15.40;86.40
68215;DHT22;55036;52.138;5.236;2023-09-19T03:50:08;15.40;85.90
68215;DHT22;55036;52.138;5.236;2023-09-19T03:52:37;15.30;86.00
68215;DHT22;55036;52.138;5.236;2023-09-19T03:55:04;15.30;86.20
68215;DHT22;55036;52.138;5.236;2023-09-19T03:57:31;15.40;86.10
68215;DHT22;55036;52.138;5.236;2023-09-19T03:59:58;15.30;85.80
68215;DHT22;55036;52.138;5.236;2023-09-19T04:02:25;15.30;85.80
68215;DHT22;55036;52.138;5.236;2023-09-19T04:04:52;15.30;86.00
68215;DHT22;55036;52.138;5.236;2023-09-19T04:07:19;15.30;85.70
68215;DHT22;55036;52.138;5.236;2023-09-19T04:09:49;15.20;85.80
68215;DHT22;55036;52.138;5.236;2023-09-19T04:12:16;15.20;85.40
68215;DHT22;55036;52.138;5.236;2023-09-19T04:14:45;15.20;85.50
68215;DHT22;55036;52.138;5.236;2023-09-19T04:17:12;15.20;85.40
68215;DHT22;55036;52.138;5.236;2023-09-19T04:19:39;15.20;85.30
68215;DHT22;55036;52.138;5.236;2023-09-19T04:22:07;15.30;85.40
68215;DHT22;55036;52.138;5.236;2023-09-19T04:24:35;15.30;83.80
68215;DHT22;55036;52.138;5.236;2023-09-19T04:27:02;15.20;85.10
68215;DHT22;55036;52.138;5.236;2023-09-19T04:29:29;15.10;84.90
68215;DHT22;55036;52.138;5.236;2023-09-19T04:31:56;15.20;85.10
68215;DHT22;55036;52.138;5.236;2023-09-19T04:34:26;15.20;84.80
68215;DHT22;55036;52.138;5.236;2023-09-19T04:36:54;15.10;83.80
68215;DHT22;55036;52.138;5.236;2023-09-19T04:39:20;15.10;84.20
68215;DHT22;55036;52.138;5.236;2023-09-19T04:41:47;15.20;84.10
68215;DHT22;55036;52.138;5.236;2023-09-19T04:44:14;15.10;83.60
68215;DHT22;55036;52.138;5.236;2023-09-19T04:46:42;15.10;83.90
68215;DHT22;55036;52.138;5.236;2023-09-19T04:49:10;15.10;83.70
68215;DHT22;55036;52.138;5.236;2023-09-19T04:51:37;15.20;84.30
68215;DHT22;55036;52.138;5.236;2023-09-19T04:54:04;15.20;84.20
68215;DHT22;55036;52.138;5.236;2023-09-19T04:56:32;15.20;84.20
68215;DHT22;55036;52.138;5.236;2023-09-19T04:58:59;15.10;84.20
68215;DHT22;55036;52.138;5.236;2023-09-19T05:01:26;15.10;84.30
68215;DHT22;55036;52.138;5.236;2023-09-19T05:03:53;15.10;84.10
68215;DHT22;55036;52.138;5.236;2023-09-19T05:06:20;15.20;84.30
68215;DHT22;55036;52.138;5.236;2023-09-19T05:08:50;15.20;83.50
68215;DHT22;55036;52.138;5.236;2023-09-19T05:11:21;15.10;84.20
68215;DHT22;55036;52.138;5.236;2023-09-19T05:13:49;15.10;83.60
68215;DHT22;55036;52.138;5.236;2023-09-19T05:16:22;15.10;84.40
68215;DHT22;55036;52.138;5.236;2023-09-19T05:18:49;15.20;84.30
68215;DHT22;55036;52.138;5.236;2023-09-19T05:21:16;15.10;84.10
68215;DHT22;55036;52.138;5.236;2023-09-19T05:23:44;15.10;84.20
68215;DHT22;55036;52.138;5.236;2023-09-19T05:26:11;15.20;84.50
68215;DHT22;55036;52.138;5.236;2023-09-19T05:28:39;15.20;84.20
68215;DHT22;55036;52.138;5.236;2023-09-19T05:31:06;15.20;84.50
68215;DHT22;55036;52.138;5.236;2023-09-19T05:33:32;15.20;84.50
68215;DHT22;55036;52.138;5.236;2023-09-19T05:36:00;15.20;84.50
68215;DHT22;55036;52.138;5.236;2023-09-19T05:38:26;15.30;84.40
68215;DHT22;55036;52.138;5.236;2023-09-19T05:40:54;15.30;84.30
68215;DHT22;55036;52.138;5.236;2023-09-19T05:43:21;15.30;84.30
68215;DHT22;55036;52.138;5.236;2023-09-19T05:45:48;15.20;84.20
68215;DHT22;55036;52.138;5.236;2023-09-19T05:48:18;15.20;84.50
68215;DHT22;55036;52.138;5.236;2023-09-19T05:50:47;15.20;84.50
68215;DHT22;55036;52.138;5.236;2023-09-19T05:53:15;15.30;84.80
68215;DHT22;55036;52.138;5.236;2023-09-19T05:55:42;15.40;84.70
68215;DHT22;55036;52.138;5.236;2023-09-19T05:58:10;15.40;84.70
68215;DHT22;55036;52.138;5.236;2023-09-19T06:00:37;15.50;84.70
68215;DHT22;55036;52.138;5.236;2023-09-19T06:03:05;15.50;84.70
68215;DHT22;55036;52.138;5.236;2023-09-19T06:05:33;15.50;84.60
68215;DHT22;55036;52.138;5.236;2023-09-19T06:08:00;15.50;84.50
68215;DHT22;55036;52.138;5.236;2023-09-19T06:10:27;15.50;84.30
68215;DHT22;55036;52.138;5.236;2023-09-19T06:12:54;15.60;84.40
68215;DHT22;55036;52.138;5.236;2023-09-19T06:15:21;15.60;84.40
68215;DHT22;55036;52.138;5.236;2023-09-19T06:17:53;15.60;84.40
68215;DHT22;55036;52.138;5.236;2023-09-19T06:20:25;15.70;84.50
68215;DHT22;55036;52.138;5.236;2023-09-19T06:22:53;15.70;84.00
68215;DHT22;55036;52.138;5.236;2023-09-19T06:25:20;15.70;84.40
68215;DHT22;55036;52.138;5.236;2023-09-19T06:27:50;15.70;84.40
68215;DHT22;55036;52.138;5.236;2023-09-19T06:30:19;15.70;84.40
68215;DHT22;55036;52.138;5.236;2023-09-19T06:32:46;15.70;84.80
68215;DHT22;55036;52.138;5.236;2023-09-19T06:35:14;15.80;84.80
68215;DHT22;55036;52.138;5.236;2023-09-19T06:37:42;15.90;84.60
68215;DHT22;55036;52.138;5.236;2023-09-19T06:40:14;15.90;84.80
68215;DHT22;55036;52.138;5.236;2023-09-19T06:43:00;16.00;84.40
68215;DHT22;55036;52.138;5.236;2023-09-19T06:45:28;15.90;84.70
68215;DHT22;55036;52.138;5.236;2023-09-19T06:47:55;15.90;85.10
68215;DHT22;55036;52.138;5.236;2023-09-19T06:50:25;16.00;85.00
68215;DHT22;55036;52.138;5.236;2023-09-19T06:52:54;16.00;85.10
68215;DHT22;55036;52.138;5.236;2023-09-19T06:55:22;16.00;85.20
68215;DHT22;55036;52.138;5.236;2023-09-19T06:57:55;16.10;85.10
68215;DHT22;55036;52.138;5.236;2023-09-19T07:00:22;16.10;86.20
68215;DHT22;55036;52.138;5.236;2023-09-19T07:03:03;16.20;85.20
68215;DHT22;55036;52.138;5.236;2023-09-19T07:05:32;16.20;84.20
68215;DHT22;55036;52.138;5.236;2023-09-19T07:08:00;16.10;85.40
68215;DHT22;55036;52.138;5.236;2023-09-19T07:10:27;16.10;85.60
68215;DHT22;55036;52.138;5.236;2023-09-19T07:15:26;16.30;85.40
68215;DHT22;55036;52.138;5.236;2023-09-19T07:17:54;16.30;85.50
68215;DHT22;55036;52.138;5.236;2023-09-19T07:20:24;16.40;85.10
68215;DHT22;55036;52.138;5.236;2023-09-19T07:22:56;16.50;85.60
68215;DHT22;55036;52.138;5.236;2023-09-19T07:25:27;16.70;84.00
68215;DHT22;55036;52.138;5.236;2023-09-19T07:27:55;16.80;84.00
68215;DHT22;55036;52.138;5.236;2023-09-19T07:30:23;16.90;83.80
68215;DHT22;55036;52.138;5.236;2023-09-19T07:32:52;17.00;82.50
68215;DHT22;55036;52.138;5.236;2023-09-19T07:35:19;17.10;82.90
68215;DHT22;55036;52.138;5.236;2023-09-19T07:37:49;17.20;83.10
68215;DHT22;55036;52.138;5.236;2023-09-19T07:40:18;17.20;82.90
68215;DHT22;55036;52.138;5.236;2023-09-19T07:42:47;17.40;82.00
68215;DHT22;55036;52.138;5.236;2023-09-19T07:45:14;17.40;81.80
68215;DHT22;55036;52.138;5.236;2023-09-19T07:50:13;17.60;81.90
68215;DHT22;55036;52.138;5.236;2023-09-19T07:52:40;17.70;80.90
68215;DHT22;55036;52.138;5.236;2023-09-19T07:55:07;17.60;79.90
68215;DHT22;55036;52.138;5.236;2023-09-19T07:57:38;17.50;80.20
68215;DHT22;55036;52.138;5.236;2023-09-19T08:00:05;17.50;80.20
68215;DHT22;55036;52.138;5.236;2023-09-19T08:02:37;17.30;80.10
68215;DHT22;55036;52.138;5.236;2023-09-19T08:05:05;17.30;80.70
68215;DHT22;55036;52.138;5.236;2023-09-19T08:07:40;17.40;81.00
68215;DHT22;55036;52.138;5.236;2023-09-19T08:10:08;17.50;80.20
68215;DHT22;55036;52.138;5.236;2023-09-19T08:12:39;17.50;80.50
68215;DHT22;55036;52.138;5.236;2023-09-19T08:17:41;17.40;80.40
68215;DHT22;55036;52.138;5.236;2023-09-19T08:20:09;17.50;80.30
68215;DHT22;55036;52.138;5.236;2023-09-19T08:22:48;17.60;80.80
68215;DHT22;55036;52.138;5.236;2023-09-19T08:25:16;17.70;80.60
68215;DHT22;55036;52.138;5.236;2023-09-19T08:27:46;17.70;79.80
68215;DHT22;55036;52.138;5.236;2023-09-19T08:30:19;17.90;80.30
68215;DHT22;55036;52.138;5.236;2023-09-19T08:32:58;18.00;80.40
68215;DHT22;55036;52.138;5.236;2023-09-19T08:35:26;18.00;78.30
68215;DHT22;55036;52.138;5.236;2023-09-19T08:37:53;18.00;79.50
68215;DHT22;55036;52.138;5.236;2023-09-19T08:40:20;18.20;79.50
68215;DHT22;55036;52.138;5.236;2023-09-19T08:42:54;18.30;78.90
68215;DHT22;55036;52.138;5.236;2023-09-19T08:45:22;18.30;77.80
68215;DHT22;55036;52.138;5.236;2023-09-19T08:48:43;18.40;78.10
68215;DHT22;55036;52.138;5.236;2023-09-19T08:50:49;18.40;78.00
68215;DHT22;55036;52.138;5.236;2023-09-19T08:53:27;18.50;77.60
68215;DHT22;55036;52.138;5.236;2023-09-19T08:56:00;18.60;77.50
68215;DHT22;55036;52.138;5.236;2023-09-19T08:58:34;18.60;77.40
68215;DHT22;55036;52.138;5.236;2023-09-19T09:01:01;18.60;76.50
68215;DHT22;55036;52.138;5.236;2023-09-19T09:03:32;18.50;77.50
68215;DHT22;55036;52.138;5.236;2023-09-19T09:06:01;18.90;77.50
68215;DHT22;55036;52.138;5.236;2023-09-19T09:08:29;19.10;75.90
68215;DHT22;55036;52.138;5.236;2023-09-19T09:10:57;19.20;75.50
68215;DHT22;55036;52.138;5.236;2023-09-19T09:13:25;19.40;75.70
68215;DHT22;55036;52.138;5.236;2023-09-19T09:15:53;19.50;72.80
68215;DHT22;55036;52.138;5.236;2023-09-19T09:18:21;19.50;72.10
68215;DHT22;55036;52.138;5.236;2023-09-19T09:20:49;19.50;72.90
68215;DHT22;55036;52.138;5.236;2023-09-19T09:23:16;19.50;71.70
68215;DHT22;55036;52.138;5.236;2023-09-19T09:25:50;19.50;73.40
68215;DHT22;55036;52.138;5.236;2023-09-19T09:28:23;19.50;71.70
68215;DHT22;55036;52.138;5.236;2023-09-19T09:30:50;19.30;71.40
68215;DHT22;55036;52.138;5.236;2023-09-19T09:33:17;19.30;71.00
68215;DHT22;55036;52.138;5.236;2023-09-19T09:35:58;19.30;72.60
68215;DHT22;55036;52.138;5.236;2023-09-19T09:38:42;19.30;70.30
68215;DHT22;55036;52.138;5.236;2023-09-19T09:41:10;19.30;72.30
68215;DHT22;55036;52.138;5.236;2023-09-19T09:43:42;19.30;71.90
68215;DHT22;55036;52.138;5.236;2023-09-19T09:46:19;19.30;72.10
68215;DHT22;55036;52.138;5.236;2023-09-19T09:49:01;19.40;72.50
68215;DHT22;55036;52.138;5.236;2023-09-19T09:54:16;19.40;71.10
68215;DHT22;55036;52.138;5.236;2023-09-19T09:56:55;19.50;71.70
68215;DHT22;55036;52.138;5.236;2023-09-19T09:59:48;19.50;71.40
68215;DHT22;55036;52.138;5.236;2023-09-19T10:02:25;19.30;72.50
68215;DHT22;55036;52.138;5.236;2023-09-19T10:04:56;19.30;72.20
68215;DHT22;55036;52.138;5.236;2023-09-19T10:07:33;19.20;71.90
68215;DHT22;55036;52.138;5.236;2023-09-19T10:10:10;19.10;72.40
68215;DHT22;55036;52.138;5.236;2023-09-19T10:12:44;19.00;71.00
68215;DHT22;55036;52.138;5.236;2023-09-19T10:15:12;19.10;71.90
68215;DHT22;55036;52.138;5.236;2023-09-19T10:17:43;19.00;70.70
68215;DHT22;55036;52.138;5.236;2023-09-19T10:20:13;19.00;72.60
68215;DHT22;55036;52.138;5.236;2023-09-19T10:22:49;19.20;72.20
68215;DHT22;55036;52.138;5.236;2023-09-19T10:25:27;19.40;71.50
68215;DHT22;55036;52.138;5.236;2023-09-19T10:28:00;19.30;70.40
68215;DHT22;55036;52.138;5.236;2023-09-19T10:30:31;19.30;70.00
68215;DHT22;55036;52.138;5.236;2023-09-19T10:33:03;19.60;70.10
68215;DHT22;55036;52.138;5.236;2023-09-19T10:35:32;19.70;69.50
68215;DHT22;55036;52.138;5.236;2023-09-19T10:38:01;19.80;69.00
68215;DHT22;55036;52.138;5.236;2023-09-19T10:40:28;20.00;69.40
68215;DHT22;55036;52.138;5.236;2023-09-19T10:43:03;20.20;69.10
68215;DHT22;55036;52.138;5.236;2023-09-19T10:45:34;20.30;67.40
68215;DHT22;55036;52.138;5.236;2023-09-19T10:48:02;20.20;67.90
68215;DHT22;55036;52.138;5.236;2023-09-19T10:50:58;20.10;68.90
68215;DHT22;55036;52.138;5.236;2023-09-19T10:56:20;20.10;68.90
68215;DHT22;55036;52.138;5.236;2023-09-19T10:58:48;20.30;67.50
68215;DHT22;55036;52.138;5.236;2023-09-19T11:01:16;20.50;68.20
68215;DHT22;55036;52.138;5.236;2023-09-19T11:03:44;20.60;67.70
68215;DHT22;55036;52.138;5.236;2023-09-19T11:06:12;20.70;67.40
68215;DHT22;55036;52.138;5.236;2023-09-19T11:08:57;20.70;67.30
68215;DHT22;55036;52.138;5.236;2023-09-19T11:30:37;20.40;66.80
68215;DHT22;55036;52.138;5.236;2023-09-19T11:36:16;20.10;66.50
68215;DHT22;55036;52.138;5.236;2023-09-19T11:46:31;20.10;66.90
68215;DHT22;55036;52.138;5.236;2023-09-19T11:49:09;20.20;67.20
68215;DHT22;55036;52.138;5.236;2023-09-19T11:51:43;20.10;67.20
68215;DHT22;55036;52.138;5.236;2023-09-19T11:54:12;20.20;67.60
68215;DHT22;55036;52.138;5.236;2023-09-19T11:56:45;20.20;67.30
68215;DHT22;55036;52.138;5.236;2023-09-19T11:59:26;20.40;67.40
68215;DHT22;55036;52.138;5.236;2023-09-19T12:01:59;20.50;65.90
68215;DHT22;55036;52.138;5.236;2023-09-19T12:07:08;20.20;66.30
68215;DHT22;55036;52.138;5.236;2023-09-19T12:09:43;20.10;66.70
68215;DHT22;55036;52.138;5.236;2023-09-19T12:12:23;20.00;66.70
68215;DHT22;55036;52.138;5.236;2023-09-19T12:15:02;19.80;66.90
68215;DHT22;55036;52.138;5.236;2023-09-19T12:17:40;19.80;67.00
68215;DHT22;55036;52.138;5.236;2023-09-19T12:20:10;19.80;67.00
68215;DHT22;55036;52.138;5.236;2023-09-19T12:22:44;19.80;67.00
68215;DHT22;55036;52.138;5.236;2023-09-19T12:25:11;19.70;67.60
68215;DHT22;55036;52.138;5.236;2023-09-19T12:27:49;19.70;67.50
68215;DHT22;55036;52.138;5.236;2023-09-19T12:30:30;19.70;67.70
68215;DHT22;55036;52.138;5.236;2023-09-19T12:33:00;19.70;67.90
68215;DHT22;55036;52.138;5.236;2023-09-19T12:35:32;19.70;68.30
68215;DHT22;55036;52.138;5.236;2023-09-19T12:38:02;19.60;68.50
68215;DHT22;55036;52.138;5.236;2023-09-19T12:40:31;19.70;68.70
68215;DHT22;55036;52.138;5.236;2023-09-19T12:43:00;19.60;68.90
68215;DHT22;55036;52.138;5.236;2023-09-19T12:45:31;19.60;69.00
68215;DHT22;55036;52.138;5.236;2023-09-19T12:48:22;19.60;69.10
68215;DHT22;55036;52.138;5.236;2023-09-19T12:53:34;19.90;69.80
68215;DHT22;55036;52.138;5.236;2023-09-19T12:56:05;20.00;68.70
68215;DHT22;55036;52.138;5.236;2023-09-19T12:58:48;20.00;68.80
68215;DHT22;55036;52.138;5.236;2023-09-19T13:01:16;20.00;69.00
68215;DHT22;55036;52.138;5.236;2023-09-19T13:03:43;20.00;69.30
68215;DHT22;55036;52.138;5.236;2023-09-19T13:06:10;19.90;69.60
68215;DHT22;55036;52.138;5.236;2023-09-19T13:08:39;19.80;71.90
68215;DHT22;55036;52.138;5.236;2023-09-19T13:11:16;19.70;72.00
68215;DHT22;55036;52.138;5.236;2023-09-19T13:13:49;19.60;72.10
68215;DHT22;55036;52.138;5.236;2023-09-19T13:16:21;19.50;72.30
68215;DHT22;55036;52.138;5.236;2023-09-19T13:18:51;19.50;73.90
68215;DHT22;55036;52.138;5.236;2023-09-19T13:21:31;19.60;73.60
68215;DHT22;55036;52.138;5.236;2023-09-19T13:24:23;19.70;73.70
68215;DHT22;55036;52.138;5.236;2023-09-19T13:26:54;19.80;73.80
68215;DHT22;55036;52.138;5.236;2023-09-19T13:29:22;19.80;73.50
68215;DHT22;55036;52.138;5.236;2023-09-19T13:31:49;19.90;73.60
68215;DHT22;55036;52.138;5.236;2023-09-19T13:34:16;20.00;72.80
68215;DHT22;55036;52.138;5.236;2023-09-19T13:36:44;20.00;72.30
68215;DHT22;55036;52.138;5.236;2023-09-19T13:39:16;20.00;72.30
68215;DHT22;55036;52.138;5.236;2023-09-19T13:41:50;19.90;72.30
68215;DHT22;55036;52.138;5.236;2023-09-19T13:44:20;20.00;72.60
68215;DHT22;55036;52.138;5.236;2023-09-19T13:46:47;20.00;71.90
68215;DHT22;55036;52.138;5.236;2023-09-19T13:49:14;19.90;71.80
68215;DHT22;55036;52.138;5.236;2023-09-19T13:51:41;19.90;71.60
68215;DHT22;55036;52.138;5.236;2023-09-19T13:54:11;19.70;71.80
68215;DHT22;55036;52.138;5.236;2023-09-19T13:56:41;19.70;72.00
68215;DHT22;55036;52.138;5.236;2023-09-19T13:59:08;19.70;72.30
68215;DHT22;55036;52.138;5.236;2023-09-19T14:01:34;19.70;71.90
68215;DHT22;55036;52.138;5.236;2023-09-19T14:04:01;19.70;71.70
68215;DHT22;55036;52.138;5.236;2023-09-19T14:06:28;19.70;72.00
68215;DHT22;55036;52.138;5.236;2023-09-19T14:08:55;19.70;71.20
68215;DHT22;55036;52.138;5.236;2023-09-19T14:11:22;19.70;71.10
68215;DHT22;55036;52.138;5.236;2023-09-19T14:13:49;19.60;70.60
68215;DHT22;55036;52.138;5.236;2023-09-19T14:16:17;19.70;70.60
68215;DHT22;55036;52.138;5.236;2023-09-19T14:18:47;19.60;70.90
68215;DHT22;55036;52.138;5.236;2023-09-19T14:21:14;19.70;70.10
68215;DHT22;55036;52.138;5.236;2023-09-19T14:23:41;19.60;69.90
68215;DHT22;55036;52.138;5.236;2023-09-19T14:26:09;19.60;69.90
68215;DHT22;55036;52.138;5.236;2023-09-19T14:28:36;19.60;70.10
68215;DHT22;55036;52.138;5.236;2023-09-19T14:31:09;19.60;70.40
68215;DHT22;55036;52.138;5.236;2023-09-19T14:33:37;19.60;70.40
68215;DHT22;55036;52.138;5.236;2023-09-19T14:36:05;19.70;69.80
68215;DHT22;55036;52.138;5.236;2023-09-19T14:38:33;19.70;70.00
68215;DHT22;55036;52.138;5.236;2023-09-19T14:41:05;19.70;70.20
68215;DHT22;55036;52.138;5.236;2023-09-19T14:43:32;19.70;70.30
68215;DHT22;55036;52.138;5.236;2023-09-19T14:46:03;19.60;69.90
68215;DHT22;55036;52.138;5.236;2023-09-19T14:48:30;19.60;70.20
68215;DHT22;55036;52.138;5.236;2023-09-19T14:51:02;19.50;70.90
68215;DHT22;55036;52.138;5.236;2023-09-19T14:53:30;19.40;71.40
68215;DHT22;55036;52.138;5.236;2023-09-19T14:56:00;19.50;71.40
68215;DHT22;55036;52.138;5.236;2023-09-19T14:58:27;19.40;71.40
68215;DHT22;55036;52.138;5.236;2023-09-19T15:01:07;19.50;71.70
68215;DHT22;55036;52.138;5.236;2023-09-19T15:03:34;19.40;71.80
68215;DHT22;55036;52.138;5.236;2023-09-19T15:06:07;19.50;72.00
68215;DHT22;55036;52.138;5.236;2023-09-19T15:08:36;19.50;71.50
68215;DHT22;55036;52.138;5.236;2023-09-19T15:11:05;19.50;71.50
68215;DHT22;55036;52.138;5.236;2023-09-19T15:13:34;19.50;71.70
68215;DHT22;55036;52.138;5.236;2023-09-19T15:16:02;19.60;71.90
68215;DHT22;55036;52.138;5.236;2023-09-19T15:18:29;19.60;71.70
68215;DHT22;55036;52.138;5.236;2023-09-19T15:21:00;19.60;71.70
68215;DHT22;55036;52.138;5.236;2023-09-19T15:23:26;19.70;71.70
68215;DHT22;55036;52.138;5.236;2023-09-19T15:25:58;19.70;71.80
68215;DHT22;55036;52.138;5.236;2023-09-19T15:28:25;19.60;71.70
68215;DHT22;55036;52.138;5.236;2023-09-19T15:31:02;19.50;72.30
68215;DHT22;55036;52.138;5.236;2023-09-19T15:33:30;19.50;73.40
68215;DHT22;55036;52.138;5.236;2023-09-19T15:36:15;19.30;73.70
68215;DHT22;55036;52.138;5.236;2023-09-19T15:39:01;19.30;73.40
68215;DHT22;55036;52.138;5.236;2023-09-19T15:41:31;19.20;74.00
68215;DHT22;55036;52.138;5.236;2023-09-19T15:44:00;19.20;74.60
68215;DHT22;55036;52.138;5.236;2023-09-19T15:46:31;19.20;74.30
68215;DHT22;55036;52.138;5.236;2023-09-19T15:49:02;19.20;75.10
68215;DHT22;55036;52.138;5.236;2023-09-19T15:51:29;19.10;75.50
68215;DHT22;55036;52.138;5.236;2023-09-19T15:53:56;19.10;76.30
68215;DHT22;55036;52.138;5.236;2023-09-19T15:56:24;19.10;76.20
68215;DHT22;55036;52.138;5.236;2023-09-19T15:58:54;19.00;76.60
68215;DHT22;55036;52.138;5.236;2023-09-19T16:01:22;19.00;76.50
68215;DHT22;55036;52.138;5.236;2023-09-19T16:03:50;19.00;76.30
68215;DHT22;55036;52.138;5.236;2023-09-19T16:06:22;19.00;76.00
68215;DHT22;55036;52.138;5.236;2023-09-19T16:08:54;19.00;75.40
68215;DHT22;55036;52.138;5.236;2023-09-19T16:11:22;19.00;75.90
68215;DHT22;55036;52.138;5.236;2023-09-19T16:13:50;19.10;74.00
68215;DHT22;55036;52.138;5.236;2023-09-19T16:16:19;19.10;74.00
68215;DHT22;55036;52.138;5.236;2023-09-19T16:18:50;19.20;74.00
68215;DHT22;55036;52.138;5.236;2023-09-19T16:21:18;19.20;74.40
68215;DHT22;55036;52.138;5.236;2023-09-19T16:23:50;19.20;73.90
68215;DHT22;55036;52.138;5.236;2023-09-19T16:26:18;19.20;73.60
68215;DHT22;55036;52.138;5.236;2023-09-19T16:28:49;19.30;73.50
68215;DHT22;55036;52.138;5.236;2023-09-19T16:31:16;19.30;73.20
68215;DHT22;55036;52.138;5.236;2023-09-19T16:33:47;19.30;73.00
68215;DHT22;55036;52.138;5.236;2023-09-19T16:36:16;19.30;74.10
68215;DHT22;55036;52.138;5.236;2023-09-19T16:38:44;19.20;75.70
68215;DHT22;55036;52.138;5.236;2023-09-19T16:41:12;19.00;76.70
68215;DHT22;55036;52.138;5.236;2023-09-19T16:43:40;18.90;79.40
68215;DHT22;55036;52.138;5.236;2023-09-19T16:46:09;18.80;78.80
68215;DHT22;55036;52.138;5.236;2023-09-19T16:48:39;18.80;78.90
68215;DHT22;55036;52.138;5.236;2023-09-19T16:51:26;18.70;79.20
68215;DHT22;55036;52.138;5.236;2023-09-19T16:53:55;18.80;79.30
68215;DHT22;55036;52.138;5.236;2023-09-19T16:56:22;18.80;79.90
68215;DHT22;55036;52.138;5.236;2023-09-19T16:58:53;18.70;79.80
68215;DHT22;55036;52.138;5.236;2023-09-19T17:01:20;18.70;79.60
68215;DHT22;55036;52.138;5.236;2023-09-19T17:03:51;18.70;79.10
68215;DHT22;55036;52.138;5.236;2023-09-19T17:06:18;18.80;79.30
68215;DHT22;55036;52.138;5.236;2023-09-19T17:08:49;18.70;79.70
68215;DHT22;55036;52.138;5.236;2023-09-19T17:11:17;18.70;79.60
68215;DHT22;55036;52.138;5.236;2023-09-19T17:13:46;18.70;79.90
68215;DHT22;55036;52.138;5.236;2023-09-19T17:16:15;18.70;79.90
68215;DHT22;55036;52.138;5.236;2023-09-19T17:18:51;18.60;79.80
68215;DHT22;55036;52.138;5.236;2023-09-19T17:21:19;18.60;80.10
68215;DHT22;55036;52.138;5.236;2023-09-19T17:23:46;18.60;79.50